sensor_id;sensor_type;location;lat;lon;timestamp;P1;durP1;ratioP1;P2;durP2;ratioP2
54247;SDS011;40161;39.768;2.722;2023-08-21T00:02:19;9.68;;;6.78;;
54247;SDS011;40161;39.768;2.722;2023-08-21T00:04:45;9.02;;;6.50;;
54247;SDS011;40161;39.768;2.722;2023-08-21T00:07:10;9.07;;;6.95;;
54247;SDS011;40161;39.768;2.722;2023-08-21T00:09:36;9.00;;;6.68;;
54247;SDS011;40161;39.768;2.722;2023-08-21T00:12:02;9.85;;;7.03;;
54247;SDS011;40161;39.768;2.722;2023-08-21T00:14:28;8.52;;;6.70;;
54247;SDS011;40161;39.768;2.722;2023-08-21T00:16:54;9.52;;;6.80;;
54247;SDS011;40161;39.768;2.722;2023-08-21T00:19:19;9.38;;;6.72;;
54247;SDS011;40161;39.768;2.722;2023-08-21T00:21:46;9.85;;;7.13;;
54247;SDS011;40161;39.768;2.722;2023-08-21T00:24:12;12.05;;;7.35;;
54247;SDS011;40161;39.768;2.722;2023-08-21T00:26:38;11.25;;;6.65;;
54247;SDS011;40161;39.768;2.722;2023-08-21T00:29:04;9.60;;;6.80;;
54247;SDS011;40161;39.768;2.722;2023-08-21T00:31:30;9.98;;;7.07;;
54247;SDS011;40161;39.768;2.722;2023-08-21T00:33:55;9.18;;;6.82;;
54247;SDS011;40161;39.768;2.722;2023-08-21T00:36:21;8.05;;;6.72;;
54247;SDS011;40161;39.768;2.722;2023-08-21T00:38:46;9.73;;;7.10;;
54247;SDS011;40161;39.768;2.722;2023-08-21T00:41:13;10.25;;;7.15;;
54247;SDS011;40161;39.768;2.722;2023-08-21T00:43:38;9.60;;;7.32;;
54247;SDS011;40161;39.768;2.722;2023-08-21T00:46:05;13.07;;;7.18;;
54247;SDS011;40161;39.768;2.722;2023-08-21T00:48:31;9.63;;;7.32;;
54247;SDS011;40161;39.768;2.722;2023-08-21T00:50:57;8.63;;;6.85;;
54247;SDS011;40161;39.768;2.722;2023-08-21T00:53:23;9.27;;;7.20;;
54247;SDS011;40161;39.768;2.722;2023-08-21T00:55:49;8.70;;;6.82;;
54247;SDS011;40161;39.768;2.722;2023-08-21T00:58:15;10.30;;;6.93;;
54247;SDS011;40161;39.768;2.722;2023-08-21T01:00:42;8.20;;;7.07;;
54247;SDS011;40161;39.768;2.722;2023-08-21T01:03:12;9.80;;;7.55;;
54247;SDS011;40161;39.768;2.722;2023-08-21T01:05:38;10.30;;;7.57;;
54247;SDS011;40161;39.768;2.722;2023-08-21T01:08:05;10.48;;;7.50;;
54247;SDS011;40161;39.768;2.722;2023-08-21T01:16:23;9.43;;;7.22;;
54247;SDS011;40161;39.768;2.722;2023-08-21T01:18:49;10.93;;;7.85;;
54247;SDS011;40161;39.768;2.722;2023-08-21T01:21:16;9.80;;;7.13;;
54247;SDS011;40161;39.768;2.722;2023-08-21T01:23:42;9.25;;;7.22;;
54247;SDS011;40161;39.768;2.722;2023-08-21T01:26:08;8.52;;;7.07;;
54247;SDS011;40161;39.768;2.722;2023-08-21T01:28:34;10.75;;;6.90;;
54247;SDS011;40161;39.768;2.722;2023-08-21T01:31:17;8.57;;;7.03;;
54247;SDS011;40161;39.768;2.722;2023-08-21T01:33:50;10.85;;;7.13;;
54247;SDS011;40161;39.768;2.722;2023-08-21T01:36:18;10.70;;;7.25;;
54247;SDS011;40161;39.768;2.722;2023-08-21T01:38:45;9.00;;;6.80;;
54247;SDS011;40161;39.768;2.722;2023-08-21T01:41:12;8.20;;;6.72;;
54247;SDS011;40161;39.768;2.722;2023-08-21T01:43:37;11.43;;;7.28;;
54247;SDS011;40161;39.768;2.722;2023-08-21T01:46:03;10.25;;;7.50;;
54247;SDS011;40161;39.768;2.722;2023-08-21T01:48:29;8.38;;;6.60;;
54247;SDS011;40161;39.768;2.722;2023-08-21T01:50:54;7.80;;;6.53;;
54247;SDS011;40161;39.768;2.722;2023-08-21T01:53:20;8.18;;;6.75;;
54247;SDS011;40161;39.768;2.722;2023-08-21T01:55:45;9.68;;;7.47;;
54247;SDS011;40161;39.768;2.722;2023-08-21T01:58:11;8.38;;;7.35;;
54247;SDS011;40161;39.768;2.722;2023-08-21T02:00:36;10.38;;;7.70;;
54247;SDS011;40161;39.768;2.722;2023-08-21T02:03:02;9.88;;;7.70;;
54247;SDS011;40161;39.768;2.722;2023-08-21T02:05:27;8.80;;;7.85;;
54247;SDS011;40161;39.768;2.722;2023-08-21T02:07:53;9.27;;;6.95;;
54247;SDS011;40161;39.768;2.722;2023-08-21T02:10:18;9.85;;;7.78;;
54247;SDS011;40161;39.768;2.722;2023-08-21T02:12:44;10.68;;;7.93;;
54247;SDS011;40161;39.768;2.722;2023-08-21T02:15:10;9.05;;;7.40;;
54247;SDS011;40161;39.768;2.722;2023-08-21T02:17:35;9.73;;;7.22;;
54247;SDS011;40161;39.768;2.722;2023-08-21T02:20:01;9.60;;;7.05;;
54247;SDS011;40161;39.768;2.722;2023-08-21T02:22:26;8.13;;;6.78;;
54247;SDS011;40161;39.768;2.722;2023-08-21T02:24:52;9.40;;;7.03;;
54247;SDS011;40161;39.768;2.722;2023-08-21T02:27:18;11.45;;;7.07;;
54247;SDS011;40161;39.768;2.722;2023-08-21T02:29:44;10.15;;;7.63;;
54247;SDS011;40161;39.768;2.722;2023-08-21T02:32:09;8.52;;;6.97;;
54247;SDS011;40161;39.768;2.722;2023-08-21T02:34:35;9.27;;;7.40;;
54247;SDS011;40161;39.768;2.722;2023-08-21T02:37:01;9.85;;;7.50;;
54247;SDS011;40161;39.768;2.722;2023-08-21T02:39:28;9.68;;;7.03;;
54247;SDS011;40161;39.768;2.722;2023-08-21T02:41:53;10.70;;;7.22;;
54247;SDS011;40161;39.768;2.722;2023-08-21T02:44:19;9.43;;;7.18;;
54247;SDS011;40161;39.768;2.722;2023-08-21T02:46:44;8.68;;;6.88;;
54247;SDS011;40161;39.768;2.722;2023-08-21T02:49:10;9.38;;;6.75;;
54247;SDS011;40161;39.768;2.722;2023-08-21T02:51:35;10.23;;;6.57;;
54247;SDS011;40161;39.768;2.722;2023-08-21T02:54:01;8.77;;;6.82;;
54247;SDS011;40161;39.768;2.722;2023-08-21T02:56:26;9.00;;;7.15;;
54247;SDS011;40161;39.768;2.722;2023-08-21T02:58:52;8.77;;;6.72;;
54247;SDS011;40161;39.768;2.722;2023-08-21T03:01:17;8.77;;;6.90;;
54247;SDS011;40161;39.768;2.722;2023-08-21T03:03:43;8.82;;;6.53;;
54247;SDS011;40161;39.768;2.722;2023-08-21T03:06:09;7.93;;;6.40;;
54247;SDS011;40161;39.768;2.722;2023-08-21T03:08:34;9.38;;;6.72;;
54247;SDS011;40161;39.768;2.722;2023-08-21T03:11:00;8.43;;;6.35;;
54247;SDS011;40161;39.768;2.722;2023-08-21T03:13:25;9.50;;;6.90;;
54247;SDS011;40161;39.768;2.722;2023-08-21T03:15:51;7.47;;;6.25;;
54247;SDS011;40161;39.768;2.722;2023-08-21T03:18:16;9.93;;;6.57;;
54247;SDS011;40161;39.768;2.722;2023-08-21T03:20:45;8.25;;;6.43;;
54247;SDS011;40161;39.768;2.722;2023-08-21T03:23:11;7.60;;;6.30;;
54247;SDS011;40161;39.768;2.722;2023-08-21T03:25:37;7.97;;;6.60;;
54247;SDS011;40161;39.768;2.722;2023-08-21T03:28:03;8.05;;;6.65;;
54247;SDS011;40161;39.768;2.722;2023-08-21T03:30:28;8.95;;;7.00;;
54247;SDS011;40161;39.768;2.722;2023-08-21T03:32:54;7.20;;;6.50;;
54247;SDS011;40161;39.768;2.722;2023-08-21T03:35:19;8.07;;;6.90;;
54247;SDS011;40161;39.768;2.722;2023-08-21T03:37:45;8.77;;;6.80;;
54247;SDS011;40161;39.768;2.722;2023-08-21T03:40:10;8.85;;;7.00;;
54247;SDS011;40161;39.768;2.722;2023-08-21T03:42:36;9.15;;;6.70;;
54247;SDS011;40161;39.768;2.722;2023-08-21T03:45:02;10.10;;;7.10;;
54247;SDS011;40161;39.768;2.722;2023-08-21T03:47:29;8.80;;;6.50;;
54247;SDS011;40161;39.768;2.722;2023-08-21T03:49:55;8.70;;;6.68;;
54247;SDS011;40161;39.768;2.722;2023-08-21T03:52:21;8.18;;;6.65;;
54247;SDS011;40161;39.768;2.722;2023-08-21T03:54:46;8.52;;;6.28;;
54247;SDS011;40161;39.768;2.722;2023-08-21T03:57:12;8.73;;;6.72;;
54247;SDS011;40161;39.768;2.722;2023-08-21T03:59:37;7.85;;;6.30;;
54247;SDS011;40161;39.768;2.722;2023-08-21T04:02:03;9.50;;;6.05;;
54247;SDS011;40161;39.768;2.722;2023-08-21T04:04:28;9.05;;;6.82;;
54247;SDS011;40161;39.768;2.722;2023-08-21T04:06:54;7.45;;;6.15;;
54247;SDS011;40161;39.768;2.722;2023-08-21T04:09:19;8.32;;;6.30;;
54247;SDS011;40161;39.768;2.722;2023-08-21T04:11:45;10.68;;;7.47;;
54247;SDS011;40161;39.768;2.722;2023-08-21T04:14:10;10.07;;;6.95;;
54247;SDS011;40161;39.768;2.722;2023-08-21T04:16:36;8.13;;;6.10;;
54247;SDS011;40161;39.768;2.722;2023-08-21T04:19:01;8.27;;;6.75;;
54247;SDS011;40161;39.768;2.722;2023-08-21T04:21:27;9.90;;;6.30;;
54247;SDS011;40161;39.768;2.722;2023-08-21T04:23:52;12.10;;;6.63;;
54247;SDS011;40161;39.768;2.722;2023-08-21T04:26:18;11.77;;;6.80;;
54247;SDS011;40161;39.768;2.722;2023-08-21T04:28:44;8.68;;;6.43;;
54247;SDS011;40161;39.768;2.722;2023-08-21T04:31:10;13.98;;;6.82;;
54247;SDS011;40161;39.768;2.722;2023-08-21T04:33:36;10.18;;;6.43;;
54247;SDS011;40161;39.768;2.722;2023-08-21T04:36:01;8.95;;;6.32;;
54247;SDS011;40161;39.768;2.722;2023-08-21T04:38:27;7.68;;;5.85;;
54247;SDS011;40161;39.768;2.722;2023-08-21T04:40:53;8.98;;;6.32;;
54247;SDS011;40161;39.768;2.722;2023-08-21T04:43:18;10.73;;;6.15;;
54247;SDS011;40161;39.768;2.722;2023-08-21T04:45:49;7.95;;;6.30;;
54247;SDS011;40161;39.768;2.722;2023-08-21T04:48:18;8.90;;;6.38;;
54247;SDS011;40161;39.768;2.722;2023-08-21T04:50:45;8.15;;;6.20;;
54247;SDS011;40161;39.768;2.722;2023-08-21T04:53:11;9.00;;;6.45;;
54247;SDS011;40161;39.768;2.722;2023-08-21T04:55:37;8.73;;;6.25;;
54247;SDS011;40161;39.768;2.722;2023-08-21T04:58:05;8.77;;;6.30;;
54247;SDS011;40161;39.768;2.722;2023-08-21T05:00:31;8.40;;;6.30;;
54247;SDS011;40161;39.768;2.722;2023-08-21T05:02:57;7.50;;;6.00;;
54247;SDS011;40161;39.768;2.722;2023-08-21T05:05:22;9.27;;;6.30;;
54247;SDS011;40161;39.768;2.722;2023-08-21T05:07:48;8.20;;;6.22;;
54247;SDS011;40161;39.768;2.722;2023-08-21T05:10:13;9.20;;;6.63;;
54247;SDS011;40161;39.768;2.722;2023-08-21T05:12:39;7.57;;;6.10;;
54247;SDS011;40161;39.768;2.722;2023-08-21T05:15:05;8.93;;;7.10;;
54247;SDS011;40161;39.768;2.722;2023-08-21T05:17:30;9.88;;;6.45;;
54247;SDS011;40161;39.768;2.722;2023-08-21T05:19:56;9.05;;;5.93;;
54247;SDS011;40161;39.768;2.722;2023-08-21T05:22:22;8.70;;;6.65;;
54247;SDS011;40161;39.768;2.722;2023-08-21T05:24:47;9.90;;;6.30;;
54247;SDS011;40161;39.768;2.722;2023-08-21T05:27:13;9.90;;;8.00;;
54247;SDS011;40161;39.768;2.722;2023-08-21T05:29:38;8.23;;;6.40;;
54247;SDS011;40161;39.768;2.722;2023-08-21T05:32:04;9.13;;;6.30;;
54247;SDS011;40161;39.768;2.722;2023-08-21T05:34:30;9.50;;;6.60;;
54247;SDS011;40161;39.768;2.722;2023-08-21T05:36:56;10.40;;;6.80;;
54247;SDS011;40161;39.768;2.722;2023-08-21T05:39:21;9.02;;;6.72;;
54247;SDS011;40161;39.768;2.722;2023-08-21T05:41:47;11.30;;;6.22;;
54247;SDS011;40161;39.768;2.722;2023-08-21T05:44:13;8.90;;;6.45;;
54247;SDS011;40161;39.768;2.722;2023-08-21T05:46:38;9.88;;;6.35;;
54247;SDS011;40161;39.768;2.722;2023-08-21T05:49:04;9.43;;;6.47;;
54247;SDS011;40161;39.768;2.722;2023-08-21T05:51:30;13.82;;;6.30;;
54247;SDS011;40161;39.768;2.722;2023-08-21T05:53:56;9.18;;;5.60;;
54247;SDS011;40161;39.768;2.722;2023-08-21T05:56:21;8.02;;;6.00;;
54247;SDS011;40161;39.768;2.722;2023-08-21T05:58:48;11.98;;;6.20;;
54247;SDS011;40161;39.768;2.722;2023-08-21T06:01:13;9.93;;;5.90;;
54247;SDS011;40161;39.768;2.722;2023-08-21T06:03:39;9.90;;;6.40;;
54247;SDS011;40161;39.768;2.722;2023-08-21T06:06:04;10.88;;;6.18;;
54247;SDS011;40161;39.768;2.722;2023-08-21T06:08:30;10.30;;;6.53;;
54247;SDS011;40161;39.768;2.722;2023-08-21T06:10:56;9.43;;;6.30;;
54247;SDS011;40161;39.768;2.722;2023-08-21T06:13:21;11.95;;;6.40;;
54247;SDS011;40161;39.768;2.722;2023-08-21T06:15:47;8.90;;;6.68;;
54247;SDS011;40161;39.768;2.722;2023-08-21T06:18:13;8.77;;;6.63;;
54247;SDS011;40161;39.768;2.722;2023-08-21T06:20:41;10.00;;;6.22;;
54247;SDS011;40161;39.768;2.722;2023-08-21T06:23:08;9.30;;;6.05;;
54247;SDS011;40161;39.768;2.722;2023-08-21T06:25:34;9.25;;;6.10;;
54247;SDS011;40161;39.768;2.722;2023-08-21T06:27:59;8.43;;;6.00;;
54247;SDS011;40161;39.768;2.722;2023-08-21T06:30:26;11.90;;;6.00;;
54247;SDS011;40161;39.768;2.722;2023-08-21T06:32:52;13.73;;;7.07;;
54247;SDS011;40161;39.768;2.722;2023-08-21T06:35:17;8.23;;;6.47;;
54247;SDS011;40161;39.768;2.722;2023-08-21T06:37:43;10.25;;;6.00;;
54247;SDS011;40161;39.768;2.722;2023-08-21T06:40:09;10.93;;;6.82;;
54247;SDS011;40161;39.768;2.722;2023-08-21T06:42:36;10.55;;;6.57;;
54247;SDS011;40161;39.768;2.722;2023-08-21T06:45:02;8.63;;;5.90;;
54247;SDS011;40161;39.768;2.722;2023-08-21T06:47:37;8.88;;;6.07;;
54247;SDS011;40161;39.768;2.722;2023-08-21T06:52:28;13.82;;;6.70;;
54247;SDS011;40161;39.768;2.722;2023-08-21T06:54:53;10.10;;;6.55;;
54247;SDS011;40161;39.768;2.722;2023-08-21T06:57:19;9.13;;;7.00;;
54247;SDS011;40161;39.768;2.722;2023-08-21T06:59:44;10.68;;;6.50;;
54247;SDS011;40161;39.768;2.722;2023-08-21T07:02:10;9.63;;;6.78;;
54247;SDS011;40161;39.768;2.722;2023-08-21T07:04:35;8.65;;;6.30;;
54247;SDS011;40161;39.768;2.722;2023-08-21T07:07:01;10.80;;;6.40;;
54247;SDS011;40161;39.768;2.722;2023-08-21T07:09:26;10.50;;;6.95;;
54247;SDS011;40161;39.768;2.722;2023-08-21T07:11:52;10.27;;;6.88;;
54247;SDS011;40161;39.768;2.722;2023-08-21T07:14:17;11.77;;;6.63;;
54247;SDS011;40161;39.768;2.722;2023-08-21T07:16:44;12.82;;;6.78;;
54247;SDS011;40161;39.768;2.722;2023-08-21T07:19:10;7.88;;;5.90;;
54247;SDS011;40161;39.768;2.722;2023-08-21T07:21:35;9.98;;;6.20;;
54247;SDS011;40161;39.768;2.722;2023-08-21T07:24:03;8.05;;;5.95;;
54247;SDS011;40161;39.768;2.722;2023-08-21T07:26:29;9.02;;;6.03;;
54247;SDS011;40161;39.768;2.722;2023-08-21T07:28:55;7.85;;;5.50;;
54247;SDS011;40161;39.768;2.722;2023-08-21T07:31:20;8.00;;;5.60;;
54247;SDS011;40161;39.768;2.722;2023-08-21T07:33:47;7.57;;;5.40;;
54247;SDS011;40161;39.768;2.722;2023-08-21T07:36:13;8.85;;;5.50;;
54247;SDS011;40161;39.768;2.722;2023-08-21T07:38:42;8.23;;;5.70;;
54247;SDS011;40161;39.768;2.722;2023-08-21T07:41:09;9.38;;;5.65;;
54247;SDS011;40161;39.768;2.722;2023-08-21T07:43:41;8.25;;;5.30;;
54247;SDS011;40161;39.768;2.722;2023-08-21T07:46:09;8.10;;;5.50;;
54247;SDS011;40161;39.768;2.722;2023-08-21T07:48:41;9.15;;;5.53;;
54247;SDS011;40161;39.768;2.722;2023-08-21T07:51:07;9.48;;;5.65;;
54247;SDS011;40161;39.768;2.722;2023-08-21T07:53:33;10.07;;;6.22;;
54247;SDS011;40161;39.768;2.722;2023-08-21T07:56:00;9.07;;;5.68;;
54247;SDS011;40161;39.768;2.722;2023-08-21T07:58:25;10.95;;;5.72;;
54247;SDS011;40161;39.768;2.722;2023-08-21T08:00:51;7.68;;;5.45;;
54247;SDS011;40161;39.768;2.722;2023-08-21T08:03:17;6.60;;;4.68;;
54247;SDS011;40161;39.768;2.722;2023-08-21T08:05:42;8.63;;;4.90;;
54247;SDS011;40161;39.768;2.722;2023-08-21T08:08:08;9.20;;;4.72;;
54247;SDS011;40161;39.768;2.722;2023-08-21T08:10:36;6.25;;;4.50;;
54247;SDS011;40161;39.768;2.722;2023-08-21T08:13:03;8.80;;;5.05;;
54247;SDS011;40161;39.768;2.722;2023-08-21T08:15:29;7.50;;;4.28;;
54247;SDS011;40161;39.768;2.722;2023-08-21T08:17:54;8.50;;;4.40;;
54247;SDS011;40161;39.768;2.722;2023-08-21T08:20:20;8.35;;;4.30;;
54247;SDS011;40161;39.768;2.722;2023-08-21T08:22:46;8.07;;;4.78;;
54247;SDS011;40161;39.768;2.722;2023-08-21T08:25:12;7.88;;;4.55;;
54247;SDS011;40161;39.768;2.722;2023-08-21T08:27:39;9.05;;;4.60;;
54247;SDS011;40161;39.768;2.722;2023-08-21T08:30:05;6.93;;;4.10;;
54247;SDS011;40161;39.768;2.722;2023-08-21T08:32:32;5.97;;;3.75;;
54247;SDS011;40161;39.768;2.722;2023-08-21T08:34:58;7.57;;;3.92;;
54247;SDS011;40161;39.768;2.722;2023-08-21T08:37:23;5.97;;;3.50;;
54247;SDS011;40161;39.768;2.722;2023-08-21T08:39:49;7.07;;;3.80;;
54247;SDS011;40161;39.768;2.722;2023-08-21T08:42:14;5.07;;;3.20;;
54247;SDS011;40161;39.768;2.722;2023-08-21T08:44:41;5.95;;;3.20;;
54247;SDS011;40161;39.768;2.722;2023-08-21T08:47:08;6.78;;;3.30;;
54247;SDS011;40161;39.768;2.722;2023-08-21T08:49:34;7.00;;;3.22;;
54247;SDS011;40161;39.768;2.722;2023-08-21T08:52:00;8.25;;;3.85;;
54247;SDS011;40161;39.768;2.722;2023-08-21T08:54:26;9.77;;;3.95;;
54247;SDS011;40161;39.768;2.722;2023-08-21T08:56:52;7.00;;;4.05;;
54247;SDS011;40161;39.768;2.722;2023-08-21T08:59:18;6.65;;;3.60;;
54247;SDS011;40161;39.768;2.722;2023-08-21T09:01:44;6.57;;;4.03;;
54247;SDS011;40161;39.768;2.722;2023-08-21T09:04:10;7.03;;;4.03;;
54247;SDS011;40161;39.768;2.722;2023-08-21T09:06:36;7.30;;;4.28;;
54247;SDS011;40161;39.768;2.722;2023-08-21T09:09:02;7.47;;;3.85;;
54247;SDS011;40161;39.768;2.722;2023-08-21T09:11:27;6.90;;;4.05;;
54247;SDS011;40161;39.768;2.722;2023-08-21T09:13:54;8.13;;;4.13;;
54247;SDS011;40161;39.768;2.722;2023-08-21T09:16:20;8.45;;;4.00;;
54247;SDS011;40161;39.768;2.722;2023-08-21T09:18:50;7.03;;;4.30;;
54247;SDS011;40161;39.768;2.722;2023-08-21T09:21:22;6.07;;;3.78;;
54247;SDS011;40161;39.768;2.722;2023-08-21T09:23:51;7.97;;;3.20;;
54247;SDS011;40161;39.768;2.722;2023-08-21T09:26:22;7.03;;;3.30;;
54247;SDS011;40161;39.768;2.722;2023-08-21T09:28:49;7.07;;;2.90;;
54247;SDS011;40161;39.768;2.722;2023-08-21T09:31:16;6.35;;;3.00;;
54247;SDS011;40161;39.768;2.722;2023-08-21T09:33:54;6.70;;;2.63;;
54247;SDS011;40161;39.768;2.722;2023-08-21T09:36:24;8.25;;;3.00;;
54247;SDS011;40161;39.768;2.722;2023-08-21T09:38:50;7.80;;;3.10;;
54247;SDS011;40161;39.768;2.722;2023-08-21T09:41:21;6.93;;;3.10;;
54247;SDS011;40161;39.768;2.722;2023-08-21T09:43:50;7.35;;;3.30;;
54247;SDS011;40161;39.768;2.722;2023-08-21T09:46:16;6.65;;;3.10;;
54247;SDS011;40161;39.768;2.722;2023-08-21T09:48:48;7.47;;;3.22;;
54247;SDS011;40161;39.768;2.722;2023-08-21T09:51:16;7.05;;;3.05;;
54247;SDS011;40161;39.768;2.722;2023-08-21T09:53:42;5.70;;;3.00;;
54247;SDS011;40161;39.768;2.722;2023-08-21T09:56:08;6.95;;;3.00;;
54247;SDS011;40161;39.768;2.722;2023-08-21T09:58:37;6.15;;;3.00;;
54247;SDS011;40161;39.768;2.722;2023-08-21T10:01:06;5.57;;;2.90;;
54247;SDS011;40161;39.768;2.722;2023-08-21T10:03:38;7.93;;;3.10;;
54247;SDS011;40161;39.768;2.722;2023-08-21T10:06:05;6.70;;;3.50;;
54247;SDS011;40161;39.768;2.722;2023-08-21T10:08:35;8.10;;;3.22;;
54247;SDS011;40161;39.768;2.722;2023-08-21T10:11:05;7.65;;;3.13;;
54247;SDS011;40161;39.768;2.722;2023-08-21T10:13:32;6.97;;;3.38;;
54247;SDS011;40161;39.768;2.722;2023-08-21T10:16:00;5.38;;;3.28;;
54247;SDS011;40161;39.768;2.722;2023-08-21T10:18:30;6.30;;;3.70;;
54247;SDS011;40161;39.768;2.722;2023-08-21T10:21:09;8.75;;;3.40;;
54247;SDS011;40161;39.768;2.722;2023-08-21T10:23:58;6.95;;;3.55;;
54247;SDS011;40161;39.768;2.722;2023-08-21T10:26:25;5.00;;;3.47;;
54247;SDS011;40161;39.768;2.722;2023-08-21T10:31:30;7.13;;;3.63;;
54247;SDS011;40161;39.768;2.722;2023-08-21T10:33:57;7.60;;;3.25;;
54247;SDS011;40161;39.768;2.722;2023-08-21T10:39:17;7.28;;;3.22;;
54247;SDS011;40161;39.768;2.722;2023-08-21T10:41:56;5.22;;;2.75;;
54247;SDS011;40161;39.768;2.722;2023-08-21T10:49:52;5.95;;;2.83;;
54247;SDS011;40161;39.768;2.722;2023-08-21T10:52:23;6.13;;;2.90;;
54247;SDS011;40161;39.768;2.722;2023-08-21T10:54:53;4.93;;;2.88;;
54247;SDS011;40161;39.768;2.722;2023-08-21T10:57:21;8.48;;;3.58;;
54247;SDS011;40161;39.768;2.722;2023-08-21T10:59:57;7.30;;;3.00;;
54247;SDS011;40161;39.768;2.722;2023-08-21T11:02:25;6.68;;;3.00;;
54247;SDS011;40161;39.768;2.722;2023-08-21T11:04:54;8.00;;;2.90;;
54247;SDS011;40161;39.768;2.722;2023-08-21T11:07:20;5.60;;;3.30;;
54247;SDS011;40161;39.768;2.722;2023-08-21T11:09:46;6.50;;;3.20;;
54247;SDS011;40161;39.768;2.722;2023-08-21T11:12:14;6.45;;;2.90;;
54247;SDS011;40161;39.768;2.722;2023-08-21T11:14:41;6.25;;;3.20;;
54247;SDS011;40161;39.768;2.722;2023-08-21T11:17:09;7.90;;;3.72;;
54247;SDS011;40161;39.768;2.722;2023-08-21T11:19:36;7.72;;;3.90;;
54247;SDS011;40161;39.768;2.722;2023-08-21T11:22:04;5.82;;;3.38;;
54247;SDS011;40161;39.768;2.722;2023-08-21T11:24:39;6.50;;;3.50;;
54247;SDS011;40161;39.768;2.722;2023-08-21T11:27:15;8.48;;;3.63;;
54247;SDS011;40161;39.768;2.722;2023-08-21T11:29:43;7.38;;;3.58;;
54247;SDS011;40161;39.768;2.722;2023-08-21T11:32:11;8.40;;;3.40;;
54247;SDS011;40161;39.768;2.722;2023-08-21T11:34:51;9.75;;;3.20;;
54247;SDS011;40161;39.768;2.722;2023-08-21T11:37:23;9.50;;;3.45;;
54247;SDS011;40161;39.768;2.722;2023-08-21T11:39:56;6.25;;;3.45;;
54247;SDS011;40161;39.768;2.722;2023-08-21T11:42:30;7.07;;;3.20;;
54247;SDS011;40161;39.768;2.722;2023-08-21T11:44:57;7.07;;;2.92;;
54247;SDS011;40161;39.768;2.722;2023-08-21T11:47:29;7.93;;;4.13;;
54247;SDS011;40161;39.768;2.722;2023-08-21T11:49:56;6.57;;;3.45;;
54247;SDS011;40161;39.768;2.722;2023-08-21T11:52:22;7.18;;;3.38;;
54247;SDS011;40161;39.768;2.722;2023-08-21T11:54:52;6.05;;;3.00;;
54247;SDS011;40161;39.768;2.722;2023-08-21T11:57:21;6.95;;;3.22;;
54247;SDS011;40161;39.768;2.722;2023-08-21T11:59:50;9.07;;;3.45;;
54247;SDS011;40161;39.768;2.722;2023-08-21T12:02:27;6.82;;;3.20;;
54247;SDS011;40161;39.768;2.722;2023-08-21T12:05:05;6.25;;;3.03;;
54247;SDS011;40161;39.768;2.722;2023-08-21T12:07:34;7.50;;;3.00;;
54247;SDS011;40161;39.768;2.722;2023-08-21T12:10:00;6.22;;;3.03;;
54247;SDS011;40161;39.768;2.722;2023-08-21T12:12:26;6.53;;;2.90;;
54247;SDS011;40161;39.768;2.722;2023-08-21T12:14:52;5.85;;;3.40;;
54247;SDS011;40161;39.768;2.722;2023-08-21T12:17:17;6.43;;;3.13;;
54247;SDS011;40161;39.768;2.722;2023-08-21T12:19:43;10.18;;;3.40;;
54247;SDS011;40161;39.768;2.722;2023-08-21T12:22:08;7.70;;;3.10;;
54247;SDS011;40161;39.768;2.722;2023-08-21T12:24:34;7.22;;;3.08;;
54247;SDS011;40161;39.768;2.722;2023-08-21T12:27:02;7.60;;;3.05;;
54247;SDS011;40161;39.768;2.722;2023-08-21T12:29:28;6.47;;;2.80;;
54247;SDS011;40161;39.768;2.722;2023-08-21T12:31:53;6.22;;;2.88;;
54247;SDS011;40161;39.768;2.722;2023-08-21T12:34:19;8.18;;;3.15;;
54247;SDS011;40161;39.768;2.722;2023-08-21T12:36:45;4.93;;;2.90;;
54247;SDS011;40161;39.768;2.722;2023-08-21T12:39:10;6.95;;;2.78;;
54247;SDS011;40161;39.768;2.722;2023-08-21T12:41:36;10.82;;;3.53;;
54247;SDS011;40161;39.768;2.722;2023-08-21T12:44:01;6.55;;;3.00;;
54247;SDS011;40161;39.768;2.722;2023-08-21T12:46:33;7.30;;;2.92;;
54247;SDS011;40161;39.768;2.722;2023-08-21T12:48:59;7.25;;;3.20;;
54247;SDS011;40161;39.768;2.722;2023-08-21T12:51:26;6.60;;;2.92;;
54247;SDS011;40161;39.768;2.722;2023-08-21T12:53:52;5.80;;;2.83;;
54247;SDS011;40161;39.768;2.722;2023-08-21T12:56:18;6.82;;;3.08;;
54247;SDS011;40161;39.768;2.722;2023-08-21T12:58:44;7.07;;;2.95;;
54247;SDS011;40161;39.768;2.722;2023-08-21T13:01:10;8.88;;;3.97;;
54247;SDS011;40161;39.768;2.722;2023-08-21T13:03:37;5.78;;;2.97;;
54247;SDS011;40161;39.768;2.722;2023-08-21T13:06:03;6.93;;;2.80;;
54247;SDS011;40161;39.768;2.722;2023-08-21T13:08:29;5.90;;;3.05;;
54247;SDS011;40161;39.768;2.722;2023-08-21T13:10:55;7.35;;;3.30;;
54247;SDS011;40161;39.768;2.722;2023-08-21T13:13:20;7.10;;;3.20;;
54247;SDS011;40161;39.768;2.722;2023-08-21T13:15:46;5.50;;;3.17;;
54247;SDS011;40161;39.768;2.722;2023-08-21T13:18:11;6.13;;;3.00;;
54247;SDS011;40161;39.768;2.722;2023-08-21T13:20:39;6.20;;;3.00;;
54247;SDS011;40161;39.768;2.722;2023-08-21T13:23:06;7.18;;;3.10;;
54247;SDS011;40161;39.768;2.722;2023-08-21T13:25:32;6.40;;;3.55;;
54247;SDS011;40161;39.768;2.722;2023-08-21T13:27:59;5.30;;;2.85;;
54247;SDS011;40161;39.768;2.722;2023-08-21T13:30:28;5.50;;;2.90;;
54247;SDS011;40161;39.768;2.722;2023-08-21T13:32:54;5.40;;;3.08;;
54247;SDS011;40161;39.768;2.722;2023-08-21T13:35:19;6.22;;;3.13;;
54247;SDS011;40161;39.768;2.722;2023-08-21T13:37:47;8.07;;;3.08;;
54247;SDS011;40161;39.768;2.722;2023-08-21T13:40:13;7.18;;;3.63;;
54247;SDS011;40161;39.768;2.722;2023-08-21T13:42:42;6.97;;;3.38;;
54247;SDS011;40161;39.768;2.722;2023-08-21T13:45:12;7.40;;;3.50;;
54247;SDS011;40161;39.768;2.722;2023-08-21T13:47:46;6.07;;;3.45;;
54247;SDS011;40161;39.768;2.722;2023-08-21T13:50:13;6.90;;;3.67;;
54247;SDS011;40161;39.768;2.722;2023-08-21T13:52:40;7.90;;;4.05;;
54247;SDS011;40161;39.768;2.722;2023-08-21T13:55:06;8.00;;;3.80;;
54247;SDS011;40161;39.768;2.722;2023-08-21T13:57:32;6.80;;;3.38;;
54247;SDS011;40161;39.768;2.722;2023-08-21T14:00:01;8.00;;;3.85;;
54247;SDS011;40161;39.768;2.722;2023-08-21T14:02:32;6.35;;;3.60;;
54247;SDS011;40161;39.768;2.722;2023-08-21T14:04:59;7.57;;;3.55;;
54247;SDS011;40161;39.768;2.722;2023-08-21T14:07:25;7.10;;;4.13;;
54247;SDS011;40161;39.768;2.722;2023-08-21T14:09:50;10.10;;;3.83;;
54247;SDS011;40161;39.768;2.722;2023-08-21T14:12:16;7.60;;;3.55;;
54247;SDS011;40161;39.768;2.722;2023-08-21T14:14:41;6.88;;;3.47;;
54247;SDS011;40161;39.768;2.722;2023-08-21T14:17:07;6.90;;;3.20;;
54247;SDS011;40161;39.768;2.722;2023-08-21T14:19:32;6.22;;;3.13;;
54247;SDS011;40161;39.768;2.722;2023-08-21T14:21:58;6.60;;;3.65;;
54247;SDS011;40161;39.768;2.722;2023-08-21T14:24:24;8.27;;;3.75;;
54247;SDS011;40161;39.768;2.722;2023-08-21T14:26:50;5.95;;;3.58;;
54247;SDS011;40161;39.768;2.722;2023-08-21T14:29:15;7.93;;;3.83;;
54247;SDS011;40161;39.768;2.722;2023-08-21T14:31:41;5.53;;;3.38;;
54247;SDS011;40161;39.768;2.722;2023-08-21T14:34:06;5.85;;;3.40;;
54247;SDS011;40161;39.768;2.722;2023-08-21T14:36:32;7.50;;;3.47;;
54247;SDS011;40161;39.768;2.722;2023-08-21T14:38:58;9.90;;;3.45;;
54247;SDS011;40161;39.768;2.722;2023-08-21T14:41:24;7.95;;;3.60;;
54247;SDS011;40161;39.768;2.722;2023-08-21T14:43:52;7.95;;;3.30;;
54247;SDS011;40161;39.768;2.722;2023-08-21T14:46:18;5.95;;;3.33;;
54247;SDS011;40161;39.768;2.722;2023-08-21T14:48:43;6.03;;;3.35;;
54247;SDS011;40161;39.768;2.722;2023-08-21T14:51:09;5.03;;;3.50;;
54247;SDS011;40161;39.768;2.722;2023-08-21T14:53:34;6.45;;;3.53;;
54247;SDS011;40161;39.768;2.722;2023-08-21T14:56:00;6.07;;;3.47;;
54247;SDS011;40161;39.768;2.722;2023-08-21T14:58:25;5.88;;;3.00;;
54247;SDS011;40161;39.768;2.722;2023-08-21T15:00:54;7.30;;;3.10;;
54247;SDS011;40161;39.768;2.722;2023-08-21T15:03:21;7.22;;;3.55;;